createdAt,value
2023-02-09T00:04:03.965Z,11.10
2023-02-09T00:08:51.874Z,11.90
2023-02-09T00:13:40.035Z,11.53
2023-02-09T00:18:27.007Z,13.10
2023-02-09T00:23:13.744Z,10.17
2023-02-09T00:28:33.474Z,12.17
2023-02-09T00:33:27.941Z,9.17
2023-02-09T00:38:26.571Z,9.47
2023-02-09T00:43:17.428Z,9.13
2023-02-09T00:48:02.636Z,12.60
2023-02-09T00:52:51.768Z,12.63
2023-02-09T00:57:38.586Z,14.80
2023-02-09T01:02:27.303Z,13.17
2023-02-09T01:07:14.092Z,12.30
2023-02-09T01:12:06.019Z,14.93
2023-02-09T01:16:49.919Z,14.40
2023-02-09T01:21:55.732Z,13.03
2023-02-09T01:26:43.078Z,13.40
2023-02-09T01:31:34.115Z,14.10
2023-02-09T01:36:18.482Z,12.73
2023-02-09T01:41:25.756Z,14.43
2023-02-09T01:46:10.158Z,14.70
2023-02-09T01:51:05.227Z,17.43
2023-02-09T01:56:02.928Z,14.87
2023-02-09T02:00:52.293Z,12.57
2023-02-09T02:05:41.655Z,12.97
2023-02-09T02:10:30.188Z,12.37
2023-02-09T02:15:16.939Z,13.13
2023-02-09T02:20:35.888Z,15.07
2023-02-09T02:25:55.902Z,15.23
2023-02-09T02:31:16.206Z,17.37
2023-02-09T02:36:17.760Z,15.73
2023-02-09T02:41:25.363Z,16.10
2023-02-09T02:46:30.144Z,14.20
2023-02-09T02:51:27.253Z,16.60
2023-02-09T02:56:33.558Z,18.80
2023-02-09T03:01:26.515Z,13.57
2023-02-09T03:06:11.798Z,12.70
2023-02-09T03:11:00.614Z,14.30
2023-02-09T03:16:01.380Z,14.03
2023-02-09T03:21:05.199Z,15.73
2023-02-09T03:25:55.452Z,14.00
2023-02-09T03:30:45.008Z,14.50
2023-02-09T03:35:45.618Z,16.77
2023-02-09T03:40:39.577Z,14.97
2023-02-09T03:45:24.895Z,14.83
2023-02-09T03:50:13.023Z,15.50
2023-02-09T03:55:00.131Z,15.37
2023-02-09T03:59:46.771Z,13.77
2023-02-09T04:04:37.219Z,16.87
2023-02-09T04:09:25.729Z,15.20
2023-02-09T04:14:14.719Z,16.07
2023-02-09T04:18:58.179Z,12.97
2023-02-09T04:23:51.095Z,17.40
2023-02-09T04:28:52.709Z,16.73
2023-02-09T04:33:40.081Z,15.13
2023-02-09T04:38:26.962Z,16.20
2023-02-09T04:43:20.089Z,17.23
2023-02-09T04:48:05.150Z,18.53
2023-02-09T04:52:50.507Z,21.03
2023-02-09T04:58:00.154Z,18.60
2023-02-09T05:02:43.524Z,19.97
2023-02-09T05:07:31.413Z,21.07
2023-02-09T05:12:18.088Z,22.63
2023-02-09T05:17:10.786Z,22.73
2023-02-09T05:21:54.429Z,19.97
2023-02-09T05:26:48.597Z,21.00
2023-02-09T05:31:32.146Z,20.13
2023-02-09T05:36:21.570Z,24.50
2023-02-09T05:41:09.354Z,18.43
2023-02-09T05:45:57.220Z,19.60
2023-02-09T05:50:42.285Z,22.67
2023-02-09T05:55:32.211Z,24.17
2023-02-09T06:00:18.904Z,23.50
2023-02-09T06:05:10.522Z,21.73
2023-02-09T06:09:54.353Z,22.50
2023-02-09T06:15:03.126Z,21.93
2023-02-09T06:19:47.276Z,17.03
2023-02-09T06:24:36.000Z,17.93
2023-02-09T06:29:23.211Z,19.27
2023-02-09T06:34:13.472Z,15.87
2023-02-09T06:38:59.972Z,16.13
2023-02-09T06:43:47.994Z,15.47
2023-02-09T06:48:35.452Z,17.50
2023-02-09T06:53:23.256Z,14.80
2023-02-09T06:58:16.233Z,16.23
2023-02-09T07:03:02.116Z,17.77
2023-02-09T07:07:49.138Z,15.27
2023-02-09T07:12:37.621Z,19.00
2023-02-09T07:17:22.401Z,15.33
2023-02-09T07:22:16.691Z,16.83
2023-02-09T07:27:00.241Z,17.23
2023-02-09T07:31:47.521Z,16.03
2023-02-09T07:36:34.113Z,16.57
2023-02-09T07:41:28.688Z,18.70
2023-02-09T07:46:15.374Z,13.90
2023-02-09T07:50:59.274Z,12.80
2023-02-09T07:55:52.076Z,15.33
2023-02-09T08:00:37.003Z,16.60
2023-02-09T08:05:39.371Z,16.10
2023-02-09T08:10:27.521Z,16.17
2023-02-09T08:15:14.835Z,17.97
2023-02-09T08:20:18.105Z,13.30
2023-02-09T08:25:11.925Z,14.77
2023-02-09T08:29:56.254Z,14.50
2023-02-09T08:34:43.133Z,14.13
2023-02-09T08:39:31.299Z,15.13
2023-02-09T08:44:23.724Z,16.47
2023-02-09T08:49:07.237Z,15.67
2023-02-09T08:53:59.634Z,16.33
2023-02-09T08:58:44.507Z,21.47
2023-02-09T09:03:32.929Z,16.73
2023-02-09T09:08:19.465Z,14.57
2023-02-09T09:13:06.115Z,14.80
2023-02-09T09:17:54.736Z,18.37
2023-02-09T09:22:44.254Z,19.27
2023-02-09T09:27:35.069Z,16.80
2023-02-09T09:32:24.642Z,15.50
2023-02-09T09:37:09.776Z,18.40
2023-02-09T09:42:00.684Z,14.47
2023-02-09T09:46:47.503Z,14.20
2023-02-09T09:51:49.458Z,15.57
2023-02-09T09:56:37.313Z,16.23
2023-02-09T10:01:23.578Z,13.53
2023-02-09T10:06:26.208Z,16.60
2023-02-09T10:11:21.568Z,13.97
2023-02-09T10:16:20.070Z,14.27
2023-02-09T10:21:09.530Z,15.43
2023-02-09T10:26:11.564Z,15.87
2023-02-09T10:31:02.001Z,19.63
2023-02-09T10:36:06.336Z,13.73
2023-02-09T10:41:40.020Z,14.63
2023-02-09T10:46:27.661Z,13.97
2023-02-09T10:51:48.270Z,14.87
2023-02-09T11:16:15.988Z,13.37
2023-02-09T11:21:40.461Z,10.33
2023-02-09T11:27:19.494Z,12.07
2023-02-09T11:32:36.126Z,9.93
2023-02-09T11:37:39.027Z,12.33
2023-02-09T11:43:01.410Z,12.30
2023-02-09T11:49:10.576Z,9.37
2023-02-09T11:54:33.342Z,11.77
2023-02-09T11:59:31.058Z,9.47
2023-02-09T12:05:08.369Z,8.70
2023-02-09T12:10:24.718Z,8.57
2023-02-09T12:15:18.777Z,7.90
2023-02-09T12:20:19.783Z,10.77
2023-02-09T12:25:56.450Z,10.00
2023-02-09T12:31:18.448Z,11.67
2023-02-09T12:36:24.976Z,10.77
2023-02-09T12:41:10.101Z,8.80
2023-02-09T12:46:27.894Z,9.83
2023-02-09T12:51:51.370Z,9.87
2023-02-09T12:56:35.105Z,10.70
2023-02-09T13:01:23.804Z,10.13
2023-02-09T13:06:30.007Z,11.67
2023-02-09T13:11:31.838Z,11.37
2023-02-09T13:16:41.670Z,13.50
2023-02-09T13:22:00.440Z,10.57
2023-02-09T13:27:04.958Z,9.33
2023-02-09T13:32:04.846Z,12.17
2023-02-09T13:37:08.482Z,11.13
2023-02-09T13:41:56.221Z,12.23
2023-02-09T13:46:59.854Z,13.00
2023-02-09T13:51:46.347Z,9.33
2023-02-09T13:56:40.271Z,9.73
2023-02-09T14:01:28.713Z,10.17
2023-02-09T14:06:25.232Z,9.73
2023-02-09T14:11:42.212Z,10.37
2023-02-09T14:16:52.300Z,10.50
2023-02-09T14:21:54.360Z,11.50
2023-02-09T14:26:46.888Z,8.87
2023-02-09T14:31:30.550Z,12.07
2023-02-09T14:36:36.358Z,11.33
2023-02-09T14:41:37.416Z,6.97
2023-02-09T14:46:46.872Z,8.20
2023-02-09T14:51:30.377Z,7.40
2023-02-09T14:56:40.692Z,7.00
2023-02-09T15:01:27.449Z,8.50
2023-02-09T15:06:14.283Z,9.70
2023-02-09T15:11:02.286Z,10.20
2023-02-09T15:15:48.246Z,9.10
2023-02-09T15:20:35.669Z,9.53
2023-02-09T15:25:22.465Z,7.97
2023-02-09T15:30:27.729Z,10.47
2023-02-09T15:35:15.098Z,11.57
2023-02-09T15:40:41.087Z,9.77
2023-02-09T15:45:43.741Z,12.20
2023-02-09T15:50:31.052Z,14.73
2023-02-09T15:55:20.060Z,12.00
2023-02-09T16:00:03.957Z,12.03
2023-02-09T16:04:50.315Z,12.97
2023-02-09T16:09:44.564Z,16.17
2023-02-09T16:14:28.437Z,13.97
2023-02-09T16:19:17.818Z,12.53
2023-02-09T16:24:07.686Z,14.77
2023-02-09T16:28:54.082Z,18.87
2023-02-09T17:43:31.139Z,19.57
2023-02-09T17:49:45.694Z,19.57
2023-02-09T19:22:41.097Z,21.03
2023-02-09T19:41:10.910Z,23.10
2023-02-09T21:15:47.506Z,15.77
2023-02-09T21:20:49.811Z,14.63
2023-02-09T21:25:41.320Z,13.83
2023-02-09T21:30:42.748Z,15.73
2023-02-09T21:35:31.995Z,15.47
2023-02-09T21:40:24.026Z,14.00
2023-02-09T21:45:27.625Z,18.77
2023-02-09T21:50:31.133Z,18.43
2023-02-09T22:00:37.698Z,11.97
2023-02-09T22:05:37.339Z,13.13
2023-02-09T22:10:57.439Z,14.20
2023-02-09T22:15:50.346Z,10.87
2023-02-09T22:20:55.279Z,13.33
2023-02-09T22:26:12.523Z,13.53
2023-02-09T22:31:15.267Z,13.23
2023-02-09T22:36:08.215Z,12.33
2023-02-09T22:40:53.871Z,13.53
2023-02-09T22:46:09.149Z,15.17
2023-02-09T22:51:03.234Z,12.83
2023-02-09T22:56:32.888Z,13.17
2023-02-09T23:01:53.107Z,12.37
2023-02-09T23:06:58.170Z,11.17
2023-02-09T23:12:05.431Z,13.00
2023-02-09T23:17:05.389Z,10.40
2023-02-09T23:22:25.490Z,12.97
2023-02-09T23:27:51.713Z,12.63
2023-02-09T23:38:01.371Z,11.40
2023-02-09T23:43:59.892Z,11.80
2023-02-09T23:48:35.224Z,12.83
2023-02-09T23:53:56.832Z,15.07
2023-02-09T23:58:57.490Z,10.73
